Terminal Aerodrome Forecast
Issued by NWS

Home | Current Version | Previous Version | Text Only | Print | Product List | Glossary On
Versions: 1 2 3 4 5 6 7 8 9 10 11 12 13
000
FTUS43 KTOP 301100
TAFMHK
TAF
KMHK 301128Z 3012/3112 27006KT P6SM FEW100
     FM301500 34012KT P6SM SKC
     FM310700 01013KT P6SM SCT015=

USA.gov is the U.S. government's official web portal to all federal, state and local government web resources and services.